TRINITY LAKE (CLE)

Elevation: 2370' · TRINITY R basin · Operator: US Bureau of Reclamation

Provisional data, subject to change.
Query executed Saturday at 12:24:59   clock

Select a sensor type for a plot of data.
Note: Reservoir Flows are daily averages.

Earlier

Date RES ELE    STORAGE    RES CHG    OUTFLOW    INFLOW    EVAP    FNF    RIV REL    PPT INC    SPILL    DIS PWR   
 FEET   AF   AF   CFS   CFS   CFS   CFS   CFS   INCHES   CFS   CFS  
01/29/2015 2239.91 870946 1449 328 1066 7 1271 e 0 0.00 0 328
01/30/2015 2240.08 872319 1373 328 1025 5 1271 e 0 0.00 0 328
01/31/2015 2240.24 873616 1297 330 991 7 1271 e 0 0.00 0 330
02/01/2015 2240.40 874913 1297 291 952 7 1722 e 0 0.00 0 291
02/02/2015 2240.91 879046 4133 320 2416 12 1722 e 0 0.34 0 320
02/03/2015 2241.43 883283 4237 393 2531 2 2531 e 0 0.55 0 393
02/04/2015 2241.81 886383 3100 353 1918 2 1918 0 0.55 0 353
02/05/2015 2242.29 890314 3931 461 2455 12 2455 0 0.02 0 461
02/06/2015 2247.40 932923 42609 217 21699 0 21699 0 0.87 0 217
02/07/2015 2253.26 983528 50605 0 25523 10 25523 0 1.86 0 0
02/08/2015 2256.43 1011676 28148 60 14251 0 14251 0 0.01 0 60
02/09/2015 2260.51 1048708 37032 171 18873 32 18873 0 0.99 0 171
02/10/2015 2262.59 1067952 19244 111 9827 14 9827 0 0.22 0 111
02/11/2015 2263.88 1080014 12062 373 6462 8 6462 0 0.00 0 373
02/12/2015 2264.84 1089058 9044 365 4933 8 4933 0 0.00 0 365
02/13/2015 2265.60 1096261 7203 339 4026 56 4026 0 0.00 0 339
02/14/2015 2266.25 1102445 6184 262 3388 8 3388 0 0.00 0 262
02/15/2015 2266.83 1107984 5539 206 3019 20 3019 0 0.00 0 206
02/16/2015 2267.31 1112586 4602 336 2667 11 2667 0 0.00 0 336
02/17/2015 2267.75 1116815 4229 337 2514 45 2514 0 0.00 0 337
02/18/2015 2268.16 1120766 3951 287 2299 20 2299 0 0.00 0 287
02/19/2015 2268.41 1123184 2418 245 1484 20 1917 e 0 0.00 0 245
02/20/2015 2268.84 1127342 4158 242 2349 11 1916 e 0 0.00 0 242
02/21/2015 2269.17 1130545 3203 233 1871 23 1871 0 0.00 0 233
02/22/2015 2269.47 1133465 2920 220 1738 46 1738 0 0.00 0 220
02/23/2015 2269.71 1135800 2335 272 1481 32 1481 0 0.00 0 272
02/24/2015 2269.95 1138136 2336 282 1460 0 1460 0 0.00 0 282
02/25/2015 2270.10 1139603 1467 268 1065 57 -- 0 0.00 0 268
02/26/2015 2270.42 1142737 3134 265 1865 20 -- 0 0.00 0 265
02/27/2015 2270.63 1144794 2057 274 1328 17 -- 0 0.00 0 274
02/28/2015 -- -- -- -- -- -- -- -- -- -- --

Later | Latest

Warning! This data is preliminary and subject to revision.

Show CLE Map | Plot CLE Data | 1 Month CLE Data | Real-Time CLE Data | CLE Info